sensor_id;sensor_type;location;lat;lon;timestamp;pressure;altitude;pressure_sealevel;temperature;humidity
69171;BME280;56279;47.902;12.308;2022-12-17T00:00:20;95403.88;;;-1.43;95.35
69171;BME280;56279;47.902;12.308;2022-12-17T00:02:41;95412.63;;;-1.44;95.45
69171;BME280;56279;47.902;12.308;2022-12-17T00:05:01;95416.81;;;-1.43;95.21
69171;BME280;56279;47.902;12.308;2022-12-17T00:07:21;95421.41;;;-1.45;95.13
69171;BME280;56279;47.902;12.308;2022-12-17T00:09:41;95423.41;;;-1.47;95.10
69171;BME280;56279;47.902;12.308;2022-12-17T00:12:00;95416.03;;;-1.50;95.22
69171;BME280;56279;47.902;12.308;2022-12-17T00:14:20;95425.19;;;-1.48;95.57
69171;BME280;56279;47.902;12.308;2022-12-17T00:16:40;95423.59;;;-1.49;95.48
69171;BME280;56279;47.902;12.308;2022-12-17T00:18:59;95423.59;;;-1.49;95.41
69171;BME280;56279;47.902;12.308;2022-12-17T00:21:19;95428.75;;;-1.49;95.26
69171;BME280;56279;47.902;12.308;2022-12-17T00:23:39;95430.75;;;-1.44;95.29
69171;BME280;56279;47.902;12.308;2022-12-17T00:25:59;95436.34;;;-1.47;95.22
69171;BME280;56279;47.902;12.308;2022-12-17T00:28:19;95443.09;;;-1.46;95.62
69171;BME280;56279;47.902;12.308;2022-12-17T00:30:39;95437.91;;;-1.46;95.48
69171;BME280;56279;47.902;12.308;2022-12-17T00:32:59;95435.13;;;-1.45;95.59
69171;BME280;56279;47.902;12.308;2022-12-17T00:35:19;95442.72;;;-1.43;95.15
69171;BME280;56279;47.902;12.308;2022-12-17T00:37:39;95443.28;;;-1.41;95.04
69171;BME280;56279;47.902;12.308;2022-12-17T00:39:59;95444.28;;;-1.42;95.16
69171;BME280;56279;47.902;12.308;2022-12-17T00:42:19;95450.25;;;-1.42;95.34
69171;BME280;56279;47.902;12.308;2022-12-17T00:44:38;95452.25;;;-1.44;95.51
69171;BME280;56279;47.902;12.308;2022-12-17T00:46:58;95453.66;;;-1.41;95.45
69171;BME280;56279;47.902;12.308;2022-12-17T00:49:18;95447.47;;;-1.40;95.30
69171;BME280;56279;47.902;12.308;2022-12-17T00:51:38;95453.25;;;-1.38;95.31
69171;BME280;56279;47.902;12.308;2022-12-17T00:53:58;95455.84;;;-1.38;95.35
69171;BME280;56279;47.902;12.308;2022-12-17T00:56:18;95462.41;;;-1.35;95.20
69171;BME280;56279;47.902;12.308;2022-12-17T00:58:38;95460.59;;;-1.35;95.21
69171;BME280;56279;47.902;12.308;2022-12-17T01:01:00;95469.38;;;-1.36;95.07
69171;BME280;56279;47.902;12.308;2022-12-17T01:03:21;95469.97;;;-1.34;95.30
69171;BME280;56279;47.902;12.308;2022-12-17T01:05:42;95480.31;;;-1.34;95.33
69171;BME280;56279;47.902;12.308;2022-12-17T01:08:09;95477.75;;;-1.34;95.29
69171;BME280;56279;47.902;12.308;2022-12-17T01:10:30;95482.50;;;-1.38;95.25
69171;BME280;56279;47.902;12.308;2022-12-17T01:12:50;95477.75;;;-1.41;95.25
69171;BME280;56279;47.902;12.308;2022-12-17T01:15:09;95477.16;;;-1.43;95.19
69171;BME280;56279;47.902;12.308;2022-12-17T01:17:30;95490.84;;;-1.42;95.10
69171;BME280;56279;47.902;12.308;2022-12-17T01:19:50;95488.47;;;-1.44;95.43
69171;BME280;56279;47.902;12.308;2022-12-17T01:22:10;95498.03;;;-1.44;95.41
69171;BME280;56279;47.902;12.308;2022-12-17T01:24:30;95503.19;;;-1.44;95.30
69171;BME280;56279;47.902;12.308;2022-12-17T01:26:50;95501.22;;;-1.42;95.53
69171;BME280;56279;47.902;12.308;2022-12-17T01:29:10;95506.22;;;-1.41;95.26
69171;BME280;56279;47.902;12.308;2022-12-17T01:31:30;95506.22;;;-1.41;95.30
69171;BME280;56279;47.902;12.308;2022-12-17T01:33:51;95508.38;;;-1.44;95.16
69171;BME280;56279;47.902;12.308;2022-12-17T01:36:10;95507.78;;;-1.46;95.47
69171;BME280;56279;47.902;12.308;2022-12-17T01:38:30;95514.75;;;-1.47;95.22
69171;BME280;56279;47.902;12.308;2022-12-17T01:40:51;95508.78;;;-1.47;95.43
69171;BME280;56279;47.902;12.308;2022-12-17T01:43:11;95518.13;;;-1.46;95.22
69171;BME280;56279;47.902;12.308;2022-12-17T01:45:38;95522.50;;;-1.47;95.06
69171;BME280;56279;47.902;12.308;2022-12-17T01:48:02;95524.31;;;-1.47;95.63
69171;BME280;56279;47.902;12.308;2022-12-17T01:50:26;95525.91;;;-1.46;95.48
69171;BME280;56279;47.902;12.308;2022-12-17T01:52:47;95525.31;;;-1.48;95.15
69171;BME280;56279;47.902;12.308;2022-12-17T01:55:11;95527.47;;;-1.52;95.25
69171;BME280;56279;47.902;12.308;2022-12-17T01:57:31;95539.44;;;-1.51;95.28
69171;BME280;56279;47.902;12.308;2022-12-17T01:59:59;95541.81;;;-1.49;95.58
69171;BME280;56279;47.902;12.308;2022-12-17T02:02:24;95543.63;;;-1.50;95.08
69171;BME280;56279;47.902;12.308;2022-12-17T02:04:44;95541.19;;;-1.58;95.16
69171;BME280;56279;47.902;12.308;2022-12-17T02:09:51;95545.41;;;-1.57;95.75
69171;BME280;56279;47.902;12.308;2022-12-17T02:12:28;95554.13;;;-1.58;95.69
69171;BME280;56279;47.902;12.308;2022-12-17T02:17:23;95546.59;;;-1.53;95.53
69171;BME280;56279;47.902;12.308;2022-12-17T02:22:44;95568.47;;;-1.55;95.26
69171;BME280;56279;47.902;12.308;2022-12-17T02:28:03;95570.47;;;-1.57;95.74
69171;BME280;56279;47.902;12.308;2022-12-17T02:30:23;95571.28;;;-1.57;95.55
69171;BME280;56279;47.902;12.308;2022-12-17T02:32:45;95577.63;;;-1.59;95.65
69171;BME280;56279;47.902;12.308;2022-12-17T02:35:15;95575.03;;;-1.66;94.91
69171;BME280;56279;47.902;12.308;2022-12-17T02:37:36;95580.59;;;-1.69;95.25
69171;BME280;56279;47.902;12.308;2022-12-17T02:39:56;95572.81;;;-1.69;95.77
69171;BME280;56279;47.902;12.308;2022-12-17T02:42:16;95580.19;;;-1.66;95.42
69171;BME280;56279;47.902;12.308;2022-12-17T02:44:37;95574.41;;;-1.68;95.63
69171;BME280;56279;47.902;12.308;2022-12-17T02:46:59;95579.78;;;-1.69;95.06
69171;BME280;56279;47.902;12.308;2022-12-17T02:49:21;95580.38;;;-1.74;95.37
69171;BME280;56279;47.902;12.308;2022-12-17T02:51:42;95586.13;;;-1.78;95.33
69171;BME280;56279;47.902;12.308;2022-12-17T02:54:03;95601.84;;;-1.80;94.90
69171;BME280;56279;47.902;12.308;2022-12-17T02:56:23;95608.97;;;-1.82;95.21
69171;BME280;56279;47.902;12.308;2022-12-17T02:58:44;95606.38;;;-1.82;95.68
69171;BME280;56279;47.902;12.308;2022-12-17T03:01:04;95611.75;;;-1.83;95.46
69171;BME280;56279;47.902;12.308;2022-12-17T03:03:24;95610.78;;;-1.82;95.46
69171;BME280;56279;47.902;12.308;2022-12-17T03:05:44;95616.13;;;-1.84;95.47
69171;BME280;56279;47.902;12.308;2022-12-17T03:08:04;95606.78;;;-1.85;95.54
69171;BME280;56279;47.902;12.308;2022-12-17T03:10:24;95613.75;;;-1.85;95.55
69171;BME280;56279;47.902;12.308;2022-12-17T03:12:43;95612.56;;;-1.83;95.30
69171;BME280;56279;47.902;12.308;2022-12-17T03:15:03;95616.94;;;-1.83;95.59
69171;BME280;56279;47.902;12.308;2022-12-17T03:17:23;95628.06;;;-1.83;95.05
69171;BME280;56279;47.902;12.308;2022-12-17T03:19:43;95624.69;;;-1.83;94.99
69171;BME280;56279;47.902;12.308;2022-12-17T03:22:03;95623.28;;;-1.86;94.90
69171;BME280;56279;47.902;12.308;2022-12-17T03:24:23;95632.22;;;-1.88;94.79
69171;BME280;56279;47.902;12.308;2022-12-17T03:26:43;95631.41;;;-1.89;95.05
69171;BME280;56279;47.902;12.308;2022-12-17T03:29:03;95634.41;;;-1.92;95.14
69171;BME280;56279;47.902;12.308;2022-12-17T03:31:22;95625.03;;;-1.93;95.17
69171;BME280;56279;47.902;12.308;2022-12-17T03:33:43;95625.03;;;-1.93;95.07
69171;BME280;56279;47.902;12.308;2022-12-17T03:36:05;95628.44;;;-1.92;94.93
69171;BME280;56279;47.902;12.308;2022-12-17T03:38:25;95629.84;;;-1.90;94.85
69171;BME280;56279;47.902;12.308;2022-12-17T03:40:49;95633.22;;;-1.89;95.06
69171;BME280;56279;47.902;12.308;2022-12-17T03:43:10;95634.81;;;-1.88;95.06
69171;BME280;56279;47.902;12.308;2022-12-17T03:45:30;95639.00;;;-1.87;94.97
69171;BME280;56279;47.902;12.308;2022-12-17T03:47:50;95635.41;;;-1.86;94.73
69171;BME280;56279;47.902;12.308;2022-12-17T03:50:10;95639.81;;;-1.87;94.41
69171;BME280;56279;47.902;12.308;2022-12-17T03:52:29;95638.59;;;-1.84;94.59
69171;BME280;56279;47.902;12.308;2022-12-17T03:54:49;95642.59;;;-1.82;94.76
69171;BME280;56279;47.902;12.308;2022-12-17T03:57:09;95644.00;;;-1.79;94.78
69171;BME280;56279;47.902;12.308;2022-12-17T03:59:29;95653.16;;;-1.77;94.67
69171;BME280;56279;47.902;12.308;2022-12-17T04:01:49;95654.78;;;-1.76;94.68
69171;BME280;56279;47.902;12.308;2022-12-17T04:04:09;95660.91;;;-1.77;94.30
69171;BME280;56279;47.902;12.308;2022-12-17T04:06:29;95657.53;;;-1.77;94.69
69171;BME280;56279;47.902;12.308;2022-12-17T04:08:49;95657.34;;;-1.82;94.28
69171;BME280;56279;47.902;12.308;2022-12-17T04:11:09;95664.28;;;-1.83;94.53
69171;BME280;56279;47.902;12.308;2022-12-17T04:13:29;95665.09;;;-1.82;94.26
69171;BME280;56279;47.902;12.308;2022-12-17T04:15:48;95666.88;;;-1.83;94.14
69171;BME280;56279;47.902;12.308;2022-12-17T04:18:08;95668.06;;;-1.85;94.01
69171;BME280;56279;47.902;12.308;2022-12-17T04:20:28;95671.44;;;-1.85;94.34
69171;BME280;56279;47.902;12.308;2022-12-17T04:22:48;95672.41;;;-1.86;94.09
69171;BME280;56279;47.902;12.308;2022-12-17T04:25:07;95673.44;;;-1.87;94.28
69171;BME280;56279;47.902;12.308;2022-12-17T04:27:27;95671.59;;;-1.86;94.17
69171;BME280;56279;47.902;12.308;2022-12-17T04:29:47;95679.38;;;-1.86;94.46
69171;BME280;56279;47.902;12.308;2022-12-17T04:32:06;95681.19;;;-1.87;94.13
69171;BME280;56279;47.902;12.308;2022-12-17T04:34:26;95685.16;;;-1.84;94.29
69171;BME280;56279;47.902;12.308;2022-12-17T04:36:46;95685.16;;;-1.84;93.78
69171;BME280;56279;47.902;12.308;2022-12-17T04:39:06;95688.72;;;-1.85;94.26
69171;BME280;56279;47.902;12.308;2022-12-17T04:41:26;95686.72;;;-1.90;94.16
69171;BME280;56279;47.902;12.308;2022-12-17T04:43:46;95698.44;;;-1.94;93.83
69171;BME280;56279;47.902;12.308;2022-12-17T04:46:06;95702.00;;;-1.95;93.88
69171;BME280;56279;47.902;12.308;2022-12-17T04:48:26;95696.22;;;-1.97;93.99
69171;BME280;56279;47.902;12.308;2022-12-17T04:50:46;95697.41;;;-1.99;94.14
69171;BME280;56279;47.902;12.308;2022-12-17T04:53:06;95701.53;;;-2.05;93.84
69171;BME280;56279;47.902;12.308;2022-12-17T04:55:26;95700.31;;;-2.09;93.85
69171;BME280;56279;47.902;12.308;2022-12-17T04:57:46;95702.66;;;-2.14;93.97
69171;BME280;56279;47.902;12.308;2022-12-17T05:00:06;95715.00;;;-2.16;94.25
69171;BME280;56279;47.902;12.308;2022-12-17T05:02:26;95709.81;;;-2.16;93.98
69171;BME280;56279;47.902;12.308;2022-12-17T05:04:46;95714.38;;;-2.18;93.62
69171;BME280;56279;47.902;12.308;2022-12-17T05:07:06;95719.91;;;-2.21;93.62
69171;BME280;56279;47.902;12.308;2022-12-17T05:09:26;95721.53;;;-2.20;94.00
69171;BME280;56279;47.902;12.308;2022-12-17T05:11:46;95727.31;;;-2.18;94.12
69171;BME280;56279;47.902;12.308;2022-12-17T05:14:06;95731.50;;;-2.17;93.62
69171;BME280;56279;47.902;12.308;2022-12-17T05:16:26;95736.44;;;-2.22;93.67
69171;BME280;56279;47.902;12.308;2022-12-17T05:18:47;95734.81;;;-2.23;93.49
69171;BME280;56279;47.902;12.308;2022-12-17T05:21:07;95735.38;;;-2.28;93.56
69171;BME280;56279;47.902;12.308;2022-12-17T05:23:26;95747.91;;;-2.31;93.62
69171;BME280;56279;47.902;12.308;2022-12-17T05:25:46;95753.06;;;-2.31;93.25
69171;BME280;56279;47.902;12.308;2022-12-17T05:28:06;95753.66;;;-2.29;93.32
69171;BME280;56279;47.902;12.308;2022-12-17T05:30:26;95755.66;;;-2.31;93.60
69171;BME280;56279;47.902;12.308;2022-12-17T05:32:46;95760.41;;;-2.28;93.28
69171;BME280;56279;47.902;12.308;2022-12-17T05:35:06;95767.00;;;-2.26;93.45
69171;BME280;56279;47.902;12.308;2022-12-17T05:37:26;95771.00;;;-2.23;93.40
69171;BME280;56279;47.902;12.308;2022-12-17T05:39:46;95775.38;;;-2.24;92.94
69171;BME280;56279;47.902;12.308;2022-12-17T05:42:06;95779.38;;;-2.21;93.51
69171;BME280;56279;47.902;12.308;2022-12-17T05:44:27;95783.72;;;-2.22;92.92
69171;BME280;56279;47.902;12.308;2022-12-17T05:46:46;95782.56;;;-2.19;93.12
69171;BME280;56279;47.902;12.308;2022-12-17T05:49:06;95788.97;;;-2.15;93.26
69171;BME280;56279;47.902;12.308;2022-12-17T05:51:26;95798.31;;;-2.14;93.02
69171;BME280;56279;47.902;12.308;2022-12-17T05:53:46;95796.34;;;-2.12;93.22
69171;BME280;56279;47.902;12.308;2022-12-17T05:56:26;95798.16;;;-2.13;93.25
69171;BME280;56279;47.902;12.308;2022-12-17T05:58:46;95798.16;;;-2.13;93.24
69171;BME280;56279;47.902;12.308;2022-12-17T06:01:05;95805.09;;;-2.13;93.37
69171;BME280;56279;47.902;12.308;2022-12-17T06:03:25;95807.69;;;-2.13;92.99
69171;BME280;56279;47.902;12.308;2022-12-17T06:05:45;95796.53;;;-2.14;93.20
69171;BME280;56279;47.902;12.308;2022-12-17T06:08:06;95809.66;;;-2.15;93.03
69171;BME280;56279;47.902;12.308;2022-12-17T06:10:26;95804.66;;;-2.17;93.43
69171;BME280;56279;47.902;12.308;2022-12-17T06:12:55;95814.81;;;-2.15;93.39
69171;BME280;56279;47.902;12.308;2022-12-17T06:15:15;95813.00;;;-2.15;93.05
69171;BME280;56279;47.902;12.308;2022-12-17T06:17:35;95816.41;;;-2.14;93.16
69171;BME280;56279;47.902;12.308;2022-12-17T06:19:55;95820.78;;;-2.15;92.96
69171;BME280;56279;47.902;12.308;2022-12-17T06:22:15;95829.88;;;-2.19;92.94
69171;BME280;56279;47.902;12.308;2022-12-17T06:24:34;95825.88;;;-2.21;93.02
69171;BME280;56279;47.902;12.308;2022-12-17T06:26:55;95825.06;;;-2.22;92.91
69171;BME280;56279;47.902;12.308;2022-12-17T06:29:15;95824.66;;;-2.25;93.06
69171;BME280;56279;47.902;12.308;2022-12-17T06:31:34;95827.25;;;-2.25;92.86
69171;BME280;56279;47.902;12.308;2022-12-17T06:33:54;95826.44;;;-2.26;93.05
69171;BME280;56279;47.902;12.308;2022-12-17T06:36:14;95827.44;;;-2.27;92.58
69171;BME280;56279;47.902;12.308;2022-12-17T06:38:34;95832.97;;;-2.30;92.35
69171;BME280;56279;47.902;12.308;2022-12-17T06:40:54;95836.72;;;-2.32;92.93
69171;BME280;56279;47.902;12.308;2022-12-17T06:43:14;95848.03;;;-2.33;93.01
69171;BME280;56279;47.902;12.308;2022-12-17T06:45:34;95848.84;;;-2.33;92.96
69171;BME280;56279;47.902;12.308;2022-12-17T06:48:01;95855.00;;;-2.34;92.41
69171;BME280;56279;47.902;12.308;2022-12-17T06:50:21;95857.50;;;-2.40;92.77
69171;BME280;56279;47.902;12.308;2022-12-17T06:52:41;95867.78;;;-2.47;92.14
69171;BME280;56279;47.902;12.308;2022-12-17T06:55:01;95877.78;;;-2.58;92.01
69171;BME280;56279;47.902;12.308;2022-12-17T06:57:21;95879.69;;;-2.67;92.57
69171;BME280;56279;47.902;12.308;2022-12-17T06:59:40;95880.94;;;-2.78;92.10
69171;BME280;56279;47.902;12.308;2022-12-17T07:02:00;95887.25;;;-2.80;92.21
69171;BME280;56279;47.902;12.308;2022-12-17T07:04:20;95892.59;;;-2.82;92.68
69171;BME280;56279;47.902;12.308;2022-12-17T07:06:41;95889.06;;;-2.81;92.53
69171;BME280;56279;47.902;12.308;2022-12-17T07:09:01;95895.81;;;-2.80;92.63
69171;BME280;56279;47.902;12.308;2022-12-17T07:11:20;95891.63;;;-2.81;92.64
69171;BME280;56279;47.902;12.308;2022-12-17T07:13:40;95889.69;;;-2.78;92.49
69171;BME280;56279;47.902;12.308;2022-12-17T07:16:00;95897.50;;;-2.72;92.07
69171;BME280;56279;47.902;12.308;2022-12-17T07:18:20;95898.09;;;-2.70;91.90
69171;BME280;56279;47.902;12.308;2022-12-17T07:20:40;95900.53;;;-2.68;91.95
69171;BME280;56279;47.902;12.308;2022-12-17T07:23:00;95896.94;;;-2.67;92.08
69171;BME280;56279;47.902;12.308;2022-12-17T07:25:20;95902.13;;;-2.67;92.19
69171;BME280;56279;47.902;12.308;2022-12-17T07:27:40;95902.56;;;-2.64;92.10
69171;BME280;56279;47.902;12.308;2022-12-17T07:30:00;95908.50;;;-2.63;91.37
69171;BME280;56279;47.902;12.308;2022-12-17T07:32:19;95912.91;;;-2.64;91.31
69171;BME280;56279;47.902;12.308;2022-12-17T07:34:53;95913.69;;;-2.63;91.79
69171;BME280;56279;47.902;12.308;2022-12-17T07:37:13;95923.66;;;-2.60;91.35
69171;BME280;56279;47.902;12.308;2022-12-17T07:39:33;95927.66;;;-2.58;91.42
69171;BME280;56279;47.902;12.308;2022-12-17T07:41:54;95928.28;;;-2.56;91.94
69171;BME280;56279;47.902;12.308;2022-12-17T07:44:14;95926.69;;;-2.57;91.57
69171;BME280;56279;47.902;12.308;2022-12-17T07:46:34;95932.47;;;-2.55;91.65
69171;BME280;56279;47.902;12.308;2022-12-17T07:48:54;95929.50;;;-2.52;91.60
69171;BME280;56279;47.902;12.308;2022-12-17T07:51:15;95942.06;;;-2.49;91.15
69171;BME280;56279;47.902;12.308;2022-12-17T07:53:35;95941.72;;;-2.46;90.94
69171;BME280;56279;47.902;12.308;2022-12-17T07:55:56;95944.56;;;-2.41;91.29
69171;BME280;56279;47.902;12.308;2022-12-17T07:58:24;95942.97;;;-2.42;91.28
69171;BME280;56279;47.902;12.308;2022-12-17T08:00:44;95941.88;;;-2.47;91.01
69171;BME280;56279;47.902;12.308;2022-12-17T08:03:03;95944.78;;;-2.57;91.55
69171;BME280;56279;47.902;12.308;2022-12-17T08:05:23;95946.03;;;-2.67;91.28
69171;BME280;56279;47.902;12.308;2022-12-17T08:07:43;95947.91;;;-2.76;91.28
69171;BME280;56279;47.902;12.308;2022-12-17T08:10:03;95949.75;;;-2.85;91.98
69171;BME280;56279;47.902;12.308;2022-12-17T08:12:23;95940.34;;;-2.92;91.88
69171;BME280;56279;47.902;12.308;2022-12-17T08:14:43;95954.94;;;-2.99;92.24
69171;BME280;56279;47.902;12.308;2022-12-17T08:17:03;95966.56;;;-3.03;92.03
69171;BME280;56279;47.902;12.308;2022-12-17T08:19:23;95967.13;;;-3.08;92.26
69171;BME280;56279;47.902;12.308;2022-12-17T08:21:42;95966.69;;;-3.11;92.17
69171;BME280;56279;47.902;12.308;2022-12-17T08:24:03;95967.81;;;-3.14;92.56
69171;BME280;56279;47.902;12.308;2022-12-17T08:26:23;95964.78;;;-3.17;92.14
69171;BME280;56279;47.902;12.308;2022-12-17T08:28:43;95963.81;;;-3.16;92.94
69171;BME280;56279;47.902;12.308;2022-12-17T08:31:02;95970.59;;;-3.15;92.48
69171;BME280;56279;47.902;12.308;2022-12-17T08:33:22;95980.91;;;-3.15;92.66
69171;BME280;56279;47.902;12.308;2022-12-17T08:35:42;95980.09;;;-3.16;92.11
69171;BME280;56279;47.902;12.308;2022-12-17T08:38:03;95983.31;;;-3.14;92.23
69171;BME280;56279;47.902;12.308;2022-12-17T08:40:24;95986.09;;;-3.15;92.81
69171;BME280;56279;47.902;12.308;2022-12-17T08:42:43;95990.44;;;-3.16;92.18
69171;BME280;56279;47.902;12.308;2022-12-17T08:45:04;95987.84;;;-3.16;92.37
69171;BME280;56279;47.902;12.308;2022-12-17T08:47:24;95986.69;;;-3.13;92.25
69171;BME280;56279;47.902;12.308;2022-12-17T08:49:44;95994.44;;;-3.13;92.22
69171;BME280;56279;47.902;12.308;2022-12-17T08:52:04;95992.03;;;-3.15;92.53
69171;BME280;56279;47.902;12.308;2022-12-17T08:54:24;95997.19;;;-3.15;92.59
69171;BME280;56279;47.902;12.308;2022-12-17T08:56:43;96002.34;;;-3.15;92.59
69171;BME280;56279;47.902;12.308;2022-12-17T08:59:05;96003.34;;;-3.16;92.50
69171;BME280;56279;47.902;12.308;2022-12-17T09:01:25;96002.72;;;-3.18;92.04
69171;BME280;56279;47.902;12.308;2022-12-17T09:03:45;96002.88;;;-3.19;92.54
69171;BME280;56279;47.902;12.308;2022-12-17T09:06:06;96010.47;;;-3.18;92.73
69171;BME280;56279;47.902;12.308;2022-12-17T09:08:30;96011.06;;;-3.16;92.48
69171;BME280;56279;47.902;12.308;2022-12-17T09:10:50;96005.91;;;-3.16;92.18
69171;BME280;56279;47.902;12.308;2022-12-17T09:13:11;96012.03;;;-3.17;92.11
69171;BME280;56279;47.902;12.308;2022-12-17T09:15:32;96014.63;;;-3.17;92.39
69171;BME280;56279;47.902;12.308;2022-12-17T09:17:52;96015.63;;;-3.18;91.86
69171;BME280;56279;47.902;12.308;2022-12-17T09:20:12;96014.81;;;-3.18;92.62
69171;BME280;56279;47.902;12.308;2022-12-17T09:22:32;96023.00;;;-3.15;92.05
69171;BME280;56279;47.902;12.308;2022-12-17T09:24:52;96021.84;;;-3.12;92.14
69171;BME280;56279;47.902;12.308;2022-12-17T09:27:12;96021.69;;;-3.11;92.06
69171;BME280;56279;47.902;12.308;2022-12-17T09:29:32;96021.97;;;-3.06;92.48
69171;BME280;56279;47.902;12.308;2022-12-17T09:31:52;96018.84;;;-3.01;92.55
69171;BME280;56279;47.902;12.308;2022-12-17T09:34:12;96028.28;;;-2.94;91.98
69171;BME280;56279;47.902;12.308;2022-12-17T09:36:31;96030.34;;;-2.89;92.19
69171;BME280;56279;47.902;12.308;2022-12-17T09:38:51;96035.34;;;-2.88;91.26
69171;BME280;56279;47.902;12.308;2022-12-17T09:41:25;96033.19;;;-2.84;91.90
69171;BME280;56279;47.902;12.308;2022-12-17T09:43:58;96038.00;;;-2.81;91.79
69171;BME280;56279;47.902;12.308;2022-12-17T09:46:31;96029.13;;;-2.78;91.53
69171;BME280;56279;47.902;12.308;2022-12-17T09:49:01;96036.50;;;-2.75;91.24
69171;BME280;56279;47.902;12.308;2022-12-17T09:51:24;96035.72;;;-2.76;91.08
69171;BME280;56279;47.902;12.308;2022-12-17T09:53:51;96034.28;;;-2.78;90.59
69171;BME280;56279;47.902;12.308;2022-12-17T09:56:14;96039.25;;;-2.77;90.87
69171;BME280;56279;47.902;12.308;2022-12-17T09:58:39;96043.88;;;-2.72;90.97
69171;BME280;56279;47.902;12.308;2022-12-17T10:00:59;96048.53;;;-2.68;90.45
69171;BME280;56279;47.902;12.308;2022-12-17T10:03:22;96054.44;;;-2.59;90.68
69171;BME280;56279;47.902;12.308;2022-12-17T10:05:43;96059.34;;;-2.50;90.85
69171;BME280;56279;47.902;12.308;2022-12-17T10:08:05;96051.28;;;-2.40;90.26
69171;BME280;56279;47.902;12.308;2022-12-17T10:10:30;96050.25;;;-2.31;90.29
69171;BME280;56279;47.902;12.308;2022-12-17T10:12:50;96051.75;;;-2.22;89.70
69171;BME280;56279;47.902;12.308;2022-12-17T10:15:13;96057.63;;;-2.14;90.17
69171;BME280;56279;47.902;12.308;2022-12-17T10:17:33;96066.25;;;-2.06;89.56
69171;BME280;56279;47.902;12.308;2022-12-17T10:19:56;96066.41;;;-1.93;89.82
69171;BME280;56279;47.902;12.308;2022-12-17T10:22:18;96068.63;;;-1.76;89.34
69171;BME280;56279;47.902;12.308;2022-12-17T10:24:44;96060.81;;;-1.61;88.70
69171;BME280;56279;47.902;12.308;2022-12-17T10:27:08;96058.34;;;-1.48;88.39
69171;BME280;56279;47.902;12.308;2022-12-17T10:29:41;96060.13;;;-1.49;88.36
69171;BME280;56279;47.902;12.308;2022-12-17T10:34:34;96051.25;;;-1.40;88.62
69171;BME280;56279;47.902;12.308;2022-12-17T10:36:55;96054.31;;;-1.36;87.96
69171;BME280;56279;47.902;12.308;2022-12-17T10:39:24;96058.16;;;-1.25;88.16
69171;BME280;56279;47.902;12.308;2022-12-17T10:41:44;96060.09;;;-1.13;88.05
69171;BME280;56279;47.902;12.308;2022-12-17T10:44:27;96061.00;;;-0.99;87.70
69171;BME280;56279;47.902;12.308;2022-12-17T10:46:55;96061.91;;;-0.86;87.18
69171;BME280;56279;47.902;12.308;2022-12-17T10:49:18;96064.53;;;-0.79;87.36
69171;BME280;56279;47.902;12.308;2022-12-17T10:51:38;96065.25;;;-0.64;87.18
69171;BME280;56279;47.902;12.308;2022-12-17T10:54:25;96063.97;;;-0.47;86.81
69171;BME280;56279;47.902;12.308;2022-12-17T10:56:51;96069.78;;;-0.45;86.24
69171;BME280;56279;47.902;12.308;2022-12-17T10:59:12;96069.19;;;-0.40;86.90
69171;BME280;56279;47.902;12.308;2022-12-17T11:01:43;96073.72;;;-0.49;86.61
69171;BME280;56279;47.902;12.308;2022-12-17T11:04:16;96076.50;;;-0.50;87.50
69171;BME280;56279;47.902;12.308;2022-12-17T11:06:50;96082.13;;;-0.47;86.86
69171;BME280;56279;47.902;12.308;2022-12-17T11:09:29;96088.91;;;-0.46;87.29
69171;BME280;56279;47.902;12.308;2022-12-17T11:11:51;96088.94;;;-0.39;87.11
69171;BME280;56279;47.902;12.308;2022-12-17T11:14:12;96090.19;;;-0.35;86.41
69171;BME280;56279;47.902;12.308;2022-12-17T11:16:41;96096.00;;;-0.27;86.55
69171;BME280;56279;47.902;12.308;2022-12-17T11:19:24;96093.44;;;-0.20;85.84
69171;BME280;56279;47.902;12.308;2022-12-17T11:21:50;96099.84;;;-0.16;86.31
69171;BME280;56279;47.902;12.308;2022-12-17T11:24:16;96101.88;;;-0.12;85.95
69171;BME280;56279;47.902;12.308;2022-12-17T11:26:38;96101.94;;;-0.05;85.63
69171;BME280;56279;47.902;12.308;2022-12-17T11:28:59;96100.06;;;-0.11;85.71
69171;BME280;56279;47.902;12.308;2022-12-17T11:33:55;96106.31;;;-0.06;86.33
69171;BME280;56279;47.902;12.308;2022-12-17T11:36:24;96097.97;;;0.06;85.55
69171;BME280;56279;47.902;12.308;2022-12-17T11:41:15;96111.28;;;0.30;85.42
69171;BME280;56279;47.902;12.308;2022-12-17T11:43:50;96108.28;;;0.40;85.37
69171;BME280;56279;47.902;12.308;2022-12-17T11:51:40;96096.47;;;0.31;84.32
69171;BME280;56279;47.902;12.308;2022-12-17T11:54:28;96096.47;;;0.31;84.75
69171;BME280;56279;47.902;12.308;2022-12-17T11:57:07;96096.47;;;0.31;85.07
69171;BME280;56279;47.902;12.308;2022-12-17T11:59:35;96099.06;;;0.31;84.69
69171;BME280;56279;47.902;12.308;2022-12-17T12:02:10;96094.91;;;0.30;85.08
69171;BME280;56279;47.902;12.308;2022-12-17T12:07:45;96088.53;;;0.39;85.03
69171;BME280;56279;47.902;12.308;2022-12-17T12:10:19;96090.56;;;0.43;84.43
69171;BME280;56279;47.902;12.308;2022-12-17T12:18:12;96085.22;;;0.64;84.97
69171;BME280;56279;47.902;12.308;2022-12-17T12:33:44;96086.84;;;0.79;83.48
69171;BME280;56279;47.902;12.308;2022-12-17T12:36:10;96085.47;;;0.89;83.04
69171;BME280;56279;47.902;12.308;2022-12-17T12:38:34;96087.50;;;1.00;82.29
69171;BME280;56279;47.902;12.308;2022-12-17T12:41:03;96089.69;;;0.97;82.15
69171;BME280;56279;47.902;12.308;2022-12-17T12:43:34;96096.44;;;0.72;83.20
69171;BME280;56279;47.902;12.308;2022-12-17T12:46:05;96097.09;;;0.33;83.39
69171;BME280;56279;47.902;12.308;2022-12-17T12:51:02;96096.38;;;-0.30;84.95
69171;BME280;56279;47.902;12.308;2022-12-17T12:53:29;96099.44;;;-0.54;84.63
69171;BME280;56279;47.902;12.308;2022-12-17T12:55:49;96105.63;;;-0.76;85.69
69171;BME280;56279;47.902;12.308;2022-12-17T12:58:32;96104.91;;;-0.91;85.54
69171;BME280;56279;47.902;12.308;2022-12-17T13:00:54;96107.72;;;-1.07;86.11
69171;BME280;56279;47.902;12.308;2022-12-17T13:05:46;96105.56;;;-1.25;86.57
69171;BME280;56279;47.902;12.308;2022-12-17T13:07:47;96100.41;;;-1.25;86.93
69171;BME280;56279;47.902;12.308;2022-12-17T13:09:52;96095.03;;;-1.23;86.91
69171;BME280;56279;47.902;12.308;2022-12-17T13:13:59;96112.28;;;-1.30;86.99